Time;durP1;ratioP1;P1;durP2;ratioP2;P2;SDS_P1;SDS_P2;PMS_P1;PMS_P2;Temp;Humidity;BMP_temperature;BMP_pressure;BME280_temperature;BME280_humidity;BME280_pressure;Samples;Min_cycle;Max_cycle;Signal;HPM_P1;HPM_P2
2023/02/11 00:00:52;;;;;;;51.78;24.60;;;;;;;-2.85;76.09;102717.16;5005246;28;20030;-88
2023/02/11 00:03:17;;;;;;;53.33;25.17;;;;;;;-2.79;74.71;102715.41;5000664;28;20149;-89
2023/02/11 00:05:43;;;;;;;40.58;18.27;;;;;;;-2.65;73.74;102724.72;5004697;28;20037;-89
2023/02/11 00:08:08;;;;;;;44.55;20.90;;;;;;;-2.58;73.37;102723.84;5012182;28;20392;-89
2023/02/11 00:10:34;;;;;;;39.13;18.90;;;;;;;-2.70;73.71;102720.47;5015761;28;20026;-89
2023/02/11 00:12:59;;;;;;;38.55;19.52;;;;;;;-2.79;74.56;102722.22;5009032;28;20455;-89
2023/02/11 00:15:25;;;;;;;39.42;19.65;;;;;;;-2.81;74.92;102719.66;5000887;28;20033;-88
2023/02/11 00:17:50;;;;;;;35.85;18.23;;;;;;;-2.83;74.90;102720.53;5003919;28;20404;-88
2023/02/11 00:20:15;;;;;;;43.72;18.80;;;;;;;-2.91;75.11;102714.63;5008090;28;21132;-90
2023/02/11 00:22:41;;;;;;;35.03;18.25;;;;;;;-2.98;75.26;102718.88;5026635;28;20393;-90
2023/02/11 00:25:06;;;;;;;39.85;18.45;;;;;;;-3.03;75.58;102716.34;5007064;28;20119;-89
2023/02/11 00:27:32;;;;;;;34.78;16.70;;;;;;;-2.99;76.06;102716.34;5005504;28;20496;-88
2023/02/11 00:29:59;;;;;;;36.53;16.95;;;;;;;-2.95;75.31;102712.94;5008809;28;20046;-90
2023/02/11 00:32:25;;;;;;;32.58;17.38;;;;;;;-2.95;75.15;102707.81;5010724;28;20042;-89
2023/02/11 00:34:52;;;;;;;33.25;16.42;;;;;;;-2.99;74.98;102718.88;5029218;28;20117;-89
2023/02/11 00:37:17;;;;;;;32.00;16.83;;;;;;;-3.01;75.29;102711.22;5012989;28;20040;-89
2023/02/11 00:39:42;;;;;;;32.22;16.50;;;;;;;-3.08;75.81;102715.50;5023420;28;20025;-89
2023/02/11 00:42:13;;;;;;;36.75;16.13;;;;;;;-3.11;76.02;102715.50;5029210;28;20029;-88
2023/02/11 00:44:38;;;;;;;33.90;17.67;;;;;;;-3.16;76.27;102712.09;5006683;28;20103;-88
2023/02/11 00:47:04;;;;;;;32.10;15.57;;;;;;;-3.18;76.61;102718.91;5012670;28;20497;-89
2023/02/11 00:49:29;;;;;;;32.55;15.60;;;;;;;-3.19;76.61;102711.25;5030516;28;20085;-88
2023/02/11 00:51:54;;;;;;;35.35;16.52;;;;;;;-3.17;76.53;102718.06;5029076;28;20112;-89
2023/02/11 00:54:20;;;;;;;29.15;14.80;;;;;;;-3.15;76.12;102720.59;5018998;28;20124;-88
2023/02/11 00:56:45;;;;;;;32.63;15.57;;;;;;;-3.21;76.13;102720.63;5012996;28;20556;-88
2023/02/11 00:59:11;;;;;;;33.95;16.25;;;;;;;-3.22;76.27;102712.13;5016227;28;20037;-88
2023/02/11 01:01:36;;;;;;;37.58;18.27;;;;;;;-3.20;76.49;102709.56;5029556;28;20033;-88
2023/02/11 01:07:23;;;;;;;29.33;15.48;;;;;;;-3.18;76.50;102712.97;5025697;28;20053;-88
2023/02/11 01:09:48;;;;;;;28.00;13.55;;;;;;;-3.22;76.69;102706.16;5012319;28;20030;-89
2023/02/11 01:12:14;;;;;;;32.67;13.80;;;;;;;-3.16;76.48;102711.25;5012132;28;20418;-89
2023/02/11 01:14:39;;;;;;;24.38;13.02;;;;;;;-3.14;76.05;102697.66;5005785;28;20057;-89
2023/02/11 01:17:05;;;;;;;21.00;10.77;;;;;;;-3.16;76.24;102694.25;5030291;28;20048;-89
2023/02/11 01:19:30;;;;;;;22.08;12.13;;;;;;;-3.20;76.04;102700.22;5027028;28;20058;-88
2023/02/11 01:21:56;;;;;;;27.58;12.77;;;;;;;-3.23;75.91;102700.22;5029051;28;20040;-88
2023/02/11 01:24:21;;;;;;;27.48;12.93;;;;;;;-3.21;76.56;102698.50;5003992;28;20041;-86
2023/02/11 01:26:47;;;;;;;26.55;12.70;;;;;;;-3.21;76.76;102698.50;5005448;28;20057;-89
2023/02/11 01:29:12;;;;;;;21.02;11.23;;;;;;;-3.22;76.57;102694.25;5010083;28;20029;-89
2023/02/11 01:31:37;;;;;;;18.65;9.48;;;;;;;-2.91;75.63;102687.41;5027724;28;20036;-89
2023/02/11 01:34:03;;;;;;;18.77;9.73;;;;;;;-1.99;71.82;102689.50;5026660;28;20037;-88
2023/02/11 01:36:28;;;;;;;22.25;10.50;;;;;;;-2.13;71.39;102684.47;5027120;28;20029;-88
2023/02/11 01:38:54;;;;;;;20.50;11.27;;;;;;;-2.41;72.47;102679.53;5006060;28;20100;-89
2023/02/11 01:41:19;;;;;;;20.85;10.90;;;;;;;-2.66;73.42;102677.94;5012746;28;20054;-88
2023/02/11 01:43:47;;;;;;;19.92;10.88;;;;;;;-2.80;74.17;102677.13;5008069;28;20030;-88
2023/02/11 01:46:24;;;;;;;18.95;10.48;;;;;;;-2.89;74.62;102679.75;5009819;28;20161;-89
2023/02/11 01:48:55;;;;;;;20.63;10.57;;;;;;;-2.91;74.93;102671.25;5020665;28;20137;-88
2023/02/11 01:51:29;;;;;;;17.05;8.02;;;;;;;-2.04;71.61;102663.97;5004042;28;20044;-89
2023/02/11 01:59:47;;;;;;;17.02;8.75;;;;;;;-2.21;71.45;102668.34;5025531;28;20558;-89
2023/02/11 02:02:16;;;;;;;16.38;8.52;;;;;;;-1.72;69.96;102663.72;5022205;28;20496;-89
2023/02/11 02:04:52;;;;;;;15.23;8.57;;;;;;;-1.56;69.38;102662.72;5003742;28;20054;-89
2023/02/11 02:07:33;;;;;;;21.50;9.77;;;;;;;-1.89;70.46;102663.84;5004429;28;20128;-89
2023/02/11 02:10:08;;;;;;;15.45;9.23;;;;;;;-2.28;72.10;102652.19;5025521;28;20030;-88
2023/02/11 02:12:34;;;;;;;19.17;9.80;;;;;;;-2.47;73.43;102648.94;5010158;28;20052;-88
2023/02/11 02:15:19;;;;;;;20.15;9.93;;;;;;;-2.63;74.19;102647.31;5004058;28;20034;-89
2023/02/11 02:17:58;;;;;;;18.27;8.95;;;;;;;-2.71;74.56;102647.34;5019532;28;20096;-89
2023/02/11 02:20:55;;;;;;;15.85;8.70;;;;;;;-2.78;75.32;102645.66;5006481;28;20396;-88
2023/02/11 02:23:26;;;;;;;;;;;;;;;-2.88;75.87;102649.13;5006397;28;20087;-89
2023/02/11 02:26:03;;;;;;;17.42;8.82;;;;;;;-2.88;75.40;102648.28;5003179;28;19914;-89
2023/02/11 02:28:46;;;;;;;18.15;9.57;;;;;;;-2.88;75.83;102638.06;5025392;28;20045;-88
2023/02/11 02:31:21;;;;;;;20.58;9.35;;;;;;;-3.01;76.27;102643.22;5007603;28;20111;-89
2023/02/11 02:34:08;;;;;;;16.40;8.52;;;;;;;-2.99;76.11;102640.66;5008122;28;20037;-88
2023/02/11 02:36:54;;;;;;;15.63;8.13;;;;;;;-2.98;75.90;102644.06;5003972;28;20067;-88
2023/02/11 02:39:25;;;;;;;15.32;8.10;;;;;;;-3.04;76.01;102639.81;5011581;28;20501;-87
2023/02/11 02:41:52;;;;;;;18.42;7.88;;;;;;;-3.11;76.80;102638.16;5004251;28;20060;-88
2023/02/11 02:44:19;;;;;;;17.67;8.20;;;;;;;-3.12;76.83;102633.91;5006908;28;20040;-89
2023/02/11 02:46:44;;;;;;;16.98;8.90;;;;;;;-3.13;77.11;102630.50;5008510;28;20029;-88
2023/02/11 02:49:15;;;;;;;18.27;8.60;;;;;;;-3.21;77.54;102637.31;5002032;28;20748;-88
2023/02/11 02:52:06;;;;;;;16.20;8.80;;;;;;;-3.23;77.53;102636.47;5016050;28;20025;-88
2023/02/11 02:54:46;;;;;;;16.15;8.15;;;;;;;-3.17;76.71;102623.72;4999818;28;20489;-88
2023/02/11 02:57:12;;;;;;;15.30;7.88;;;;;;;-3.12;76.90;102632.19;5003617;28;20117;-88
2023/02/11 02:59:40;;;;;;;19.75;8.88;;;;;;;-3.05;76.37;102625.38;5009507;28;20153;-89
2023/02/11 03:02:30;;;;;;;17.05;9.45;;;;;;;-3.08;77.28;102635.59;5006260;28;20042;-87
2023/02/11 03:05:05;;;;;;;15.32;7.53;;;;;;;-3.11;77.56;102638.16;5015584;28;20044;-89
2023/02/11 03:07:45;;;;;;;20.00;8.77;;;;;;;-3.12;78.03;102632.19;5005941;28;20056;-88
2023/02/11 03:10:10;;;;;;;19.02;9.00;;;;;;;-3.13;77.96;102629.66;5023183;28;20112;-88
2023/02/11 03:12:36;;;;;;;15.38;8.68;;;;;;;-3.12;77.96;102628.81;5009773;28;20124;-88
2023/02/11 03:15:05;;;;;;;15.15;7.65;;;;;;;-2.70;76.60;102612.47;5017269;28;20507;-88
2023/02/11 03:17:33;;;;;;;16.83;8.25;;;;;;;-2.06;73.28;102610.34;4999815;28;20029;-88
2023/02/11 03:20:01;;;;;;;11.18;6.95;;;;;;;-2.21;73.25;102615.56;5022740;28;20119;-88
2023/02/11 03:22:32;;;;;;;16.83;8.13;;;;;;;-2.48;74.77;102610.66;5002825;28;20029;-88
2023/02/11 03:24:59;;;;;;;15.00;8.57;;;;;;;-2.61;75.49;102609.00;5007367;28;20041;-88
2023/02/11 03:27:37;;;;;;;15.65;8.02;;;;;;;-2.33;74.69;102613.06;5006519;28;20029;-88
2023/02/11 03:30:12;;;;;;;17.40;7.68;;;;;;;-1.99;72.41;102616.25;5022782;28;20029;-88
2023/02/11 03:32:40;;;;;;;15.10;8.88;;;;;;;-2.12;72.67;102600.16;5002024;28;20492;-88
2023/02/11 03:35:12;;;;;;;13.18;7.55;;;;;;;-2.34;73.95;102598.63;5006777;28;20069;-89
2023/02/11 03:37:38;;;;;;;19.35;8.10;;;;;;;-2.44;74.55;102592.75;5025505;28;20037;-89
2023/02/11 03:40:11;;;;;;;14.82;8.45;;;;;;;-2.51;75.09;102585.13;5007530;28;20730;-88
2023/02/11 03:42:48;;;;;;;15.48;8.00;;;;;;;-2.56;75.07;102590.28;5021833;28;20025;-87
2023/02/11 03:45:17;;;;;;;15.23;8.80;;;;;;;-2.61;75.37;102592.00;5006406;28;20407;-88
2023/02/11 03:47:47;;;;;;;13.65;6.30;;;;;;;-2.70;75.52;102592.03;5025919;28;20029;-89
2023/02/11 03:50:17;;;;;;;14.52;7.63;;;;;;;-2.73;76.41;102584.41;5008067;28;20057;-88
2023/02/11 03:52:45;;;;;;;13.73;7.25;;;;;;;-2.66;75.85;102588.63;5025020;28;20032;-89
2023/02/11 03:55:16;;;;;;;17.15;7.93;;;;;;;-2.49;75.14;102584.28;5012264;28;20489;-89
2023/02/11 03:57:42;;;;;;;18.75;7.57;;;;;;;-2.57;75.16;102580.91;5013962;28;20041;-89
2023/02/11 04:00:08;;;;;;;15.77;7.63;;;;;;;-1.96;72.71;102584.72;5030983;28;20090;-89
2023/02/11 04:02:36;;;;;;;20.05;8.57;;;;;;;-1.70;71.35;102577.66;5031278;28;20425;-88
2023/02/11 04:05:02;;;;;;;14.90;7.78;;;;;;;-1.64;70.75;102571.63;5029883;28;20056;-88
2023/02/11 04:07:27;;;;;;;16.25;8.45;;;;;;;-1.84;71.74;102569.25;5029439;28;20033;-88
2023/02/11 04:09:53;;;;;;;16.67;8.20;;;;;;;-2.13;72.65;102567.81;5012854;28;20425;-89
2023/02/11 04:12:19;;;;;;;18.30;8.20;;;;;;;-2.33;73.69;102562.84;5032211;28;20029;-89
2023/02/11 04:14:45;;;;;;;15.35;8.15;;;;;;;-2.43;73.78;102568.91;5031490;28;20029;-88
2023/02/11 04:17:11;;;;;;;17.40;8.98;;;;;;;-2.50;74.59;102562.16;5007940;28;20032;-88
2023/02/11 04:19:36;;;;;;;15.65;7.78;;;;;;;-2.51;74.61;102565.56;5011622;28;20033;-87
2023/02/11 04:22:02;;;;;;;19.10;8.43;;;;;;;-2.63;74.95;102557.97;5009906;28;20026;-88
2023/02/11 04:24:28;;;;;;;16.50;8.23;;;;;;;-2.72;75.31;102556.31;5009093;28;20029;-89
2023/02/11 04:26:53;;;;;;;17.70;8.68;;;;;;;-2.76;75.24;102556.34;5031535;28;20550;-88
2023/02/11 04:29:19;;;;;;;17.10;8.25;;;;;;;-2.45;74.21;102562.97;5029816;28;20056;-88
2023/02/11 04:31:44;;;;;;;13.45;8.45;;;;;;;-2.56;74.35;102558.78;5018370;28;20048;-89
2023/02/11 04:34:12;;;;;;;16.33;7.80;;;;;;;-2.72;74.52;102560.59;5013187;28;20127;-88
2023/02/11 04:36:37;;;;;;;19.70;8.98;;;;;;;-2.84;75.29;102561.53;5028564;28;20361;-89
2023/02/11 04:39:03;;;;;;;16.42;8.20;;;;;;;-2.92;76.21;102563.25;5029418;28;20030;-88
2023/02/11 04:41:28;;;;;;;19.40;9.13;;;;;;;-2.98;76.65;102557.34;5007304;28;20476;-88
2023/02/11 04:43:54;;;;;;;16.50;9.25;;;;;;;-3.02;76.83;102562.47;5027846;28;20030;-88
2023/02/11 04:46:20;;;;;;;20.65;9.90;;;;;;;-3.04;76.91;102564.16;5027976;28;20060;-88
2023/02/11 04:48:45;;;;;;;16.98;9.57;;;;;;;-3.02;77.20;102567.56;5012622;28;20041;-88
2023/02/11 04:51:11;;;;;;;20.17;9.82;;;;;;;-3.00;77.08;102567.56;5011481;28;20451;-87
2023/02/11 04:53:36;;;;;;;16.17;8.25;;;;;;;-2.97;77.07;102564.13;5003974;28;20432;-87
2023/02/11 04:56:02;;;;;;;21.42;9.15;;;;;;;-2.97;76.52;102559.88;5030571;28;20032;-88
2023/02/11 04:58:27;;;;;;;16.30;8.48;;;;;;;-2.94;76.52;102557.31;5029462;28;20051;-88
2023/02/11 05:00:52;;;;;;;15.98;8.40;;;;;;;-2.96;76.37;102550.53;5024309;28;20105;-88
2023/02/11 05:03:18;;;;;;;17.50;8.85;;;;;;;-2.97;76.53;102546.28;5009091;28;20042;-88
2023/02/11 05:05:43;;;;;;;18.17;8.20;;;;;;;-2.99;76.35;102540.34;5029004;28;20037;-89
2023/02/11 05:08:10;;;;;;;14.80;7.95;;;;;;;-2.92;76.37;102536.91;5009249;28;20065;-88
2023/02/11 05:10:35;;;;;;;14.80;8.43;;;;;;;-2.93;76.52;102535.22;5008877;28;20532;-88
2023/02/11 05:13:01;;;;;;;18.80;8.10;;;;;;;-2.81;76.22;102537.66;5011095;28;20037;-88
2023/02/11 05:15:26;;;;;;;19.23;8.80;;;;;;;-2.69;75.74;102527.41;5009675;28;20030;-88
2023/02/11 05:17:52;;;;;;;14.80;7.70;;;;;;;-2.36;74.02;102527.13;5029403;28;20029;-88
2023/02/11 05:20:18;;;;;;;17.45;8.15;;;;;;;-2.26;73.30;102533.03;5010889;28;20029;-88
2023/02/11 05:22:43;;;;;;;19.65;9.52;;;;;;;-2.14;72.76;102538.03;5022925;28;20048;-89
2023/02/11 05:25:09;;;;;;;24.33;11.57;;;;;;;-2.38;73.81;102541.66;5005792;28;20037;-89
2023/02/11 05:27:35;;;;;;;28.58;12.70;;;;;;;-2.59;74.48;102536.69;5025876;28;20025;-89
2023/02/11 05:30:00;;;;;;;20.10;10.27;;;;;;;-2.78;75.13;102530.84;5005108;28;20196;-88
2023/02/11 05:32:26;;;;;;;19.58;10.45;;;;;;;-2.89;75.94;102522.44;5010583;28;20557;-88
2023/02/11 05:34:53;;;;;;;23.02;9.18;;;;;;;-2.96;76.92;102527.56;5008863;28;20046;-88
2023/02/11 05:37:19;;;;;;;16.85;9.20;;;;;;;-2.94;76.83;102523.31;5007673;28;20361;-88
2023/02/11 05:39:44;;;;;;;18.98;8.52;;;;;;;-2.99;76.86;102522.50;5005691;28;20036;-88
2023/02/11 05:42:10;;;;;;;17.98;7.50;;;;;;;-2.46;75.34;102528.09;5028616;28;20112;-88
2023/02/11 05:44:35;;;;;;;17.38;8.25;;;;;;;-1.79;72.61;102530.03;5006673;28;20037;-88
2023/02/11 05:47:01;;;;;;;20.30;8.63;;;;;;;-1.16;69.12;102521.63;5009225;28;20029;-88
2023/02/11 05:49:26;;;;;;;18.50;9.93;;;;;;;-0.93;68.14;102516.19;5004040;28;20022;-88
2023/02/11 05:51:51;;;;;;;20.70;9.18;;;;;;;-1.23;68.92;102518.31;5022678;28;20029;-88
2023/02/11 05:54:17;;;;;;;19.95;9.27;;;;;;;-1.74;70.84;102520.59;5012601;28;20033;-88
2023/02/11 05:56:42;;;;;;;21.15;11.35;;;;;;;-2.04;72.54;102509.00;5025315;28;20688;-88
2023/02/11 05:59:08;;;;;;;23.35;9.15;;;;;;;-2.24;73.54;102510.03;5011181;28;20127;-89
2023/02/11 06:01:34;;;;;;;22.77;10.43;;;;;;;-2.39;74.51;102516.97;5011389;28;20037;-88
2023/02/11 06:03:59;;;;;;;20.80;11.02;;;;;;;-2.50;74.92;102526.41;5011494;28;20112;-88
2023/02/11 06:06:25;;;;;;;17.80;8.52;;;;;;;-1.92;72.63;102519.97;5006470;28;20049;-88
2023/02/11 06:08:50;;;;;;;15.90;8.57;;;;;;;-1.22;69.69;102503.81;5003413;28;20042;-87
2023/02/11 06:11:16;;;;;;;15.15;8.40;;;;;;;-0.84;67.49;102505.81;5006461;28;20029;-88
2023/02/11 06:13:43;;;;;;;14.25;8.27;;;;;;;-0.61;66.64;102508.91;5025557;28;20030;-88
2023/02/11 06:16:09;;;;;;;18.80;8.45;;;;;;;-0.91;67.74;102509.34;5007054;28;20030;-88
2023/02/11 06:18:34;;;;;;;15.07;8.60;;;;;;;-1.41;69.27;102510.84;5023004;28;20029;-88
2023/02/11 06:21:00;;;;;;;20.00;10.65;;;;;;;-1.78;71.03;102512.97;5006516;28;20041;-88
2023/02/11 06:23:26;;;;;;;18.08;9.73;;;;;;;-1.98;72.46;102523.44;5006481;28;20037;-88
2023/02/11 06:25:51;;;;;;;20.92;10.27;;;;;;;-2.11;73.45;102519.28;5022627;28;20823;-87
2023/02/11 06:28:17;;;;;;;22.02;10.80;;;;;;;-2.12;73.74;102523.53;5000773;28;20505;-87
2023/02/11 06:30:43;;;;;;;26.73;10.32;;;;;;;-2.11;73.39;102521.84;5020893;28;20477;-88
2023/02/11 06:33:08;;;;;;;15.40;8.90;;;;;;;-2.14;73.91;102526.97;5023525;28;20487;-88
2023/02/11 06:35:34;;;;;;;20.10;9.50;;;;;;;-1.71;71.26;102523.13;5014673;28;20035;-87
2023/02/11 06:38:00;;;;;;;17.15;8.77;;;;;;;-1.05;68.72;102515.50;5046682;28;20105;-88
2023/02/11 06:40:26;;;;;;;15.70;7.97;;;;;;;-0.61;66.83;102519.16;5050579;28;20021;-88
2023/02/11 06:42:51;;;;;;;17.13;8.20;;;;;;;-0.48;65.91;102515.53;5036037;28;20037;-88
2023/02/11 06:45:17;;;;;;;15.05;7.35;;;;;;;-0.60;66.74;102520.00;5036703;28;20017;-87
2023/02/11 06:47:43;;;;;;;17.55;8.15;;;;;;;-0.77;67.23;102538.16;5034718;28;20017;-88
2023/02/11 06:50:12;;;;;;;15.80;8.43;;;;;;;-0.52;66.64;102536.94;5036251;28;20010;-87
2023/02/11 06:52:37;;;;;;;17.67;8.10;;;;;;;-0.28;65.74;102532.28;5043565;28;20037;-88
2023/02/11 06:55:04;;;;;;;20.25;8.63;;;;;;;-0.08;64.25;102536.22;5026082;28;20199;-88
2023/02/11 06:57:30;;;;;;;17.52;8.30;;;;;;;0.03;63.74;102535.16;5008694;28;20045;-87
2023/02/11 06:59:55;;;;;;;15.52;7.47;;;;;;;0.05;63.75;102529.13;5008211;28;20372;-87
2023/02/11 07:02:21;;;;;;;14.55;7.85;;;;;;;0.09;63.63;102517.94;5024799;28;20029;-87
2023/02/11 07:04:46;;;;;;;14.75;7.70;;;;;;;0.33;62.23;102516.66;5022667;28;20050;-87
2023/02/11 07:07:12;;;;;;;13.50;7.07;;;;;;;0.48;61.96;102512.94;5009495;28;20037;-86
2023/02/11 07:09:37;;;;;;;13.55;7.35;;;;;;;0.56;61.71;102519.59;5030720;28;20432;-87
2023/02/11 07:12:03;;;;;;;14.85;6.63;;;;;;;0.77;59.79;102518.34;5032183;28;20112;-87
2023/02/11 07:14:28;;;;;;;15.05;7.70;;;;;;;0.92;59.52;102510.31;5010048;28;20060;-87
2023/02/11 07:16:54;;;;;;;14.73;6.75;;;;;;;1.10;58.62;102516.75;5027079;28;20037;-88
2023/02/11 07:19:19;;;;;;;14.82;7.47;;;;;;;1.13;58.47;102510.69;5029087;28;20033;-87
2023/02/11 07:21:44;;;;;;;15.98;7.22;;;;;;;1.23;58.06;102517.31;5011641;28;20095;-87
2023/02/11 07:24:11;;;;;;;12.98;6.45;;;;;;;1.23;58.39;102525.03;5013946;28;20033;-87
2023/02/11 07:26:37;;;;;;;15.30;8.02;;;;;;;1.18;58.53;102532.81;5032765;28;20049;-88
2023/02/11 07:29:03;;;;;;;14.82;7.10;;;;;;;1.16;58.40;102536.31;5015537;28;20421;-86
2023/02/11 07:31:29;;;;;;;14.27;7.95;;;;;;;1.08;58.44;102543.34;5032677;28;20029;-86
2023/02/11 07:33:58;;;;;;;14.75;8.30;;;;;;;1.10;58.35;102544.13;5015525;28;20033;-86
2023/02/11 07:36:24;;;;;;;12.82;7.57;;;;;;;1.13;58.01;102537.22;5011685;28;20031;-87
2023/02/11 07:38:50;;;;;;;15.77;6.90;;;;;;;1.17;58.54;102540.56;5008832;28;20440;-87
2023/02/11 07:41:18;;;;;;;13.43;7.22;;;;;;;1.19;58.74;102552.50;5030414;28;20033;-86
2023/02/11 07:43:44;;;;;;;12.27;7.22;;;;;;;1.29;58.21;102563.41;5032209;28;20033;-86
2023/02/11 07:46:16;;;;;;;15.27;7.78;;;;;;;1.35;57.85;102558.16;5015443;28;20033;-87
2023/02/11 07:48:41;;;;;;;16.08;8.48;;;;;;;1.38;57.89;102547.81;5015319;28;20038;-87
2023/02/11 07:51:15;;;;;;;15.82;8.48;;;;;;;1.45;57.47;102544.19;5030176;28;20037;-86
2023/02/11 07:53:41;;;;;;;16.75;7.53;;;;;;;1.65;56.97;102547.13;5031160;28;20469;-87
2023/02/11 07:56:09;;;;;;;15.57;7.75;;;;;;;1.76;57.10;102551.19;5014461;28;20128;-87
2023/02/11 07:58:34;;;;;;;13.98;7.10;;;;;;;1.89;56.59;102550.00;5028632;28;20025;-86
2023/02/11 08:01:02;;;;;;;13.75;7.93;;;;;;;2.04;56.44;102544.44;5026663;28;20029;-86
2023/02/11 08:03:28;;;;;;;14.00;6.72;;;;;;;2.16;56.83;102543.28;5027594;28;20034;-87
2023/02/11 08:05:53;;;;;;;15.02;7.97;;;;;;;2.20;56.67;102534.63;5012175;28;20065;-87
2023/02/11 08:08:19;;;;;;;15.10;7.65;;;;;;;2.23;56.42;102540.53;5030143;28;20033;-86
2023/02/11 08:10:44;;;;;;;17.00;7.75;;;;;;;2.30;55.57;102546.34;5005644;28;20462;-86
2023/02/11 08:13:09;;;;;;;15.20;8.90;;;;;;;2.42;54.53;102546.00;5027983;28;20043;-87
2023/02/11 08:15:35;;;;;;;16.77;8.45;;;;;;;2.46;55.56;102557.06;5032561;28;20029;-87
2023/02/11 08:18:00;;;;;;;14.85;8.23;;;;;;;2.40;55.65;102554.63;5030861;28;20036;-87
2023/02/11 08:20:26;;;;;;;15.38;8.32;;;;;;;2.48;54.13;102539.84;5009142;28;20136;-87
2023/02/11 08:22:51;;;;;;;16.15;8.00;;;;;;;2.45;54.75;102530.47;5031044;28;20021;-87
2023/02/11 08:25:16;;;;;;;16.00;8.10;;;;;;;2.50;54.86;102538.06;5008937;28;20041;-87
2023/02/11 08:27:42;;;;;;;18.85;8.20;;;;;;;2.55;54.90;102546.50;5009102;28;20025;-87
2023/02/11 08:30:08;;;;;;;12.60;7.03;;;;;;;2.69;54.25;102539.25;5032630;28;20068;-88
2023/02/11 08:32:34;;;;;;;13.93;7.85;;;;;;;2.70;54.94;102540.94;5024953;28;20362;-87
2023/02/11 08:35:00;;;;;;;12.15;7.10;;;;;;;2.76;54.72;102551.06;5010091;28;20029;-87
2023/02/11 08:37:25;;;;;;;16.83;7.32;;;;;;;2.89;53.99;102552.38;5006969;28;20079;-88
2023/02/11 08:39:50;;;;;;;13.57;7.82;;;;;;;2.99;53.51;102558.09;5003645;28;20448;-88
2023/02/11 08:42:16;;;;;;;16.70;8.00;;;;;;;3.13;53.48;102544.81;5029703;28;20059;-88
2023/02/11 08:44:42;;;;;;;13.60;7.25;;;;;;;3.14;53.23;102549.09;5032105;28;20058;-87
2023/02/11 08:47:08;;;;;;;10.48;6.60;;;;;;;3.33;52.97;102555.34;5014563;28;20052;-88
2023/02/11 08:49:34;;;;;;;13.15;6.35;;;;;;;3.45;52.29;102546.41;5030539;28;20480;-88
2023/02/11 08:52:02;;;;;;;16.00;6.45;;;;;;;3.51;51.89;102541.06;5031431;28;20103;-87
2023/02/11 08:54:29;;;;;;;14.05;6.18;;;;;;;3.48;52.40;102542.00;5013222;28;20021;-88
2023/02/11 08:56:55;;;;;;;11.77;6.50;;;;;;;3.57;51.85;102539.13;5030631;28;20033;-88
2023/02/11 08:59:21;;;;;;;13.38;6.88;;;;;;;3.77;51.80;102543.66;5012184;28;20337;-87
2023/02/11 09:01:46;;;;;;;10.52;6.30;;;;;;;3.87;51.16;102536.44;5011420;28;20507;-88
2023/02/11 09:04:12;;;;;;;14.27;6.30;;;;;;;3.99;51.12;102534.28;5031088;28;20040;-87
2023/02/11 09:06:38;;;;;;;22.77;7.28;;;;;;;4.16;50.74;102536.28;5008280;28;20076;-88
2023/02/11 09:09:03;;;;;;;16.20;5.30;;;;;;;4.33;50.79;102533.94;5010563;28;20158;-88
2023/02/11 09:11:35;;;;;;;12.55;6.90;;;;;;;4.43;50.29;102538.78;5013056;28;20057;-88
2023/02/11 09:14:02;;;;;;;13.10;6.22;;;;;;;4.49;50.17;102536.00;5031487;28;20037;-88
2023/02/11 09:16:30;;;;;;;11.60;5.63;;;;;;;4.58;49.78;102543.41;5005745;28;20036;-88
2023/02/11 09:18:57;;;;;;;14.10;6.18;;;;;;;4.71;50.18;102544.66;5024809;28;20096;-88
2023/02/11 09:21:23;;;;;;;11.93;5.82;;;;;;;4.65;49.65;102539.72;5009191;28;20029;-87
2023/02/11 09:23:48;;;;;;;20.75;6.70;;;;;;;4.65;49.62;102537.97;5012946;28;20033;-87
2023/02/11 09:26:24;;;;;;;11.57;5.78;;;;;;;4.75;49.08;102535.03;5017063;28;20041;-90
2023/02/11 09:28:50;;;;;;;9.23;5.78;;;;;;;4.92;48.47;102540.41;5008812;28;20047;-87
2023/02/11 09:31:18;;;;;;;10.00;5.28;;;;;;;5.03;48.22;102543.44;5012250;28;20124;-87
2023/02/11 09:33:49;;;;;;;12.52;5.60;;;;;;;5.06;48.65;102535.56;5026658;28;20027;-87
2023/02/11 09:36:17;;;;;;;25.13;6.82;;;;;;;5.11;48.83;102537.97;5011161;28;20029;-88
2023/02/11 09:38:43;;;;;;;13.38;6.97;;;;;;;5.24;48.82;102534.00;5008791;28;20125;-87
2023/02/11 09:41:23;;;;;;;11.20;5.93;;;;;;;5.28;47.58;102544.16;5008388;28;20021;-89
2023/02/11 09:44:03;;;;;;;12.75;5.80;;;;;;;5.36;46.26;102538.69;5021427;28;20045;-86
2023/02/11 09:46:36;;;;;;;13.90;6.88;;;;;;;5.40;46.61;102535.09;5027671;28;20029;-87
2023/02/11 09:49:04;;;;;;;11.57;5.93;;;;;;;5.46;47.25;102536.59;5030541;28;20029;-87
2023/02/11 09:51:55;;;;;;;10.32;6.28;;;;;;;5.44;46.24;102531.47;5009069;28;20029;-87
2023/02/11 09:54:49;;;;;;;11.73;4.63;;;;;;;5.44;46.92;102536.66;5030064;28;20448;-87
2023/02/11 09:57:15;;;;;;;13.43;6.57;;;;;;;5.45;46.88;102538.31;5012514;28;20041;-87
2023/02/11 09:59:42;;;;;;;13.55;6.55;;;;;;;5.46;46.77;102537.44;5009528;28;20940;-88
2023/02/11 10:02:42;;;;;;;11.32;6.05;;;;;;;5.36;45.37;102540.44;5028764;28;20389;-88
2023/02/11 10:05:29;;;;;;;8.45;4.80;;;;;;;5.45;44.96;102525.41;5014061;28;20045;-91
2023/02/11 10:08:18;;;;;;;11.75;5.93;;;;;;;5.55;44.15;102521.56;5004893;28;20040;-89
2023/02/11 10:10:52;;;;;;;9.68;5.35;;;;;;;5.59;45.57;102527.44;5001876;28;20037;-88
2023/02/11 10:13:48;;;;;;;9.85;6.10;;;;;;;5.56;44.97;102533.56;5030490;28;20033;-91
2023/02/11 10:16:42;;;;;;;8.23;5.03;;;;;;;5.61;45.37;102538.56;5022971;28;20473;-91
2023/02/11 10:19:12;;;;;;;10.20;5.10;;;;;;;5.63;45.19;102529.84;5027452;28;20115;-90
2023/02/11 10:22:01;;;;;;;7.05;4.93;;;;;;;5.76;43.25;102526.72;5008211;28;20087;-89
2023/02/11 10:24:27;;;;;;;7.55;4.90;;;;;;;5.83;44.50;102531.59;4997846;28;20037;-91
2023/02/11 10:26:53;;;;;;;7.57;5.22;;;;;;;5.81;45.05;102530.81;5026069;28;20034;-90
2023/02/11 10:29:32;;;;;;;7.78;4.10;;;;;;;5.86;44.87;102533.22;5026996;28;20037;-90
2023/02/11 10:32:01;;;;;;;11.57;6.80;;;;;;;5.90;44.87;102538.22;5010525;28;20124;-90
2023/02/11 10:34:26;;;;;;;13.35;7.28;;;;;;;5.98;44.39;102538.75;5009685;28;20037;-90
2023/02/11 10:36:52;;;;;;;9.98;6.15;;;;;;;6.07;44.48;102537.53;5028194;28;20100;-90
2023/02/11 10:39:21;;;;;;;8.85;5.75;;;;;;;6.09;43.89;102535.72;5006033;28;20029;-90
2023/02/11 10:41:54;;;;;;;10.23;5.50;;;;;;;6.20;43.90;102532.63;5006676;28;20488;-91
2023/02/11 10:44:29;;;;;;;8.73;5.10;;;;;;;6.21;44.20;102523.97;5023468;28;20112;-90
2023/02/11 10:46:56;;;;;;;8.80;5.50;;;;;;;6.15;44.94;102524.22;5031149;28;20033;-90
2023/02/11 10:49:35;;;;;;;10.25;5.53;;;;;;;6.04;44.64;102527.31;5018147;28;20037;-90
2023/02/11 10:52:17;;;;;;;11.00;5.57;;;;;;;5.85;44.91;102521.19;5025132;28;20062;-90
2023/02/11 10:55:09;;;;;;;8.68;5.10;;;;;;;6.02;45.05;102508.41;5026525;28;20061;-90
2023/02/11 10:57:48;;;;;;;8.23;5.35;;;;;;;6.36;45.45;102500.00;5024711;28;20083;-90
2023/02/11 11:00:16;;;;;;;8.32;4.80;;;;;;;6.55;45.21;102507.81;5008280;28;20029;-90
2023/02/11 11:02:43;;;;;;;8.30;5.00;;;;;;;6.63;45.44;102503.94;5025620;28;20512;-91
2023/02/11 11:05:18;;;;;;;9.18;4.75;;;;;;;6.71;45.37;102495.81;5022483;28;20034;-90
2023/02/11 11:07:59;;;;;;;11.35;5.38;;;;;;;6.74;44.81;102482.72;5007017;28;20034;-91
2023/02/11 11:10:33;;;;;;;10.68;5.13;;;;;;;6.78;45.05;102486.00;5004836;28;20064;-92
2023/02/11 11:13:01;;;;;;;9.10;4.78;;;;;;;6.74;45.54;102482.72;5014866;28;20037;-93
2023/02/11 11:15:29;;;;;;;9.40;4.82;;;;;;;6.70;45.13;102480.34;5009710;28;20396;-90
2023/02/11 11:18:14;;;;;;;6.60;4.65;;;;;;;6.63;44.14;102472.00;5007405;28;20444;-89
2023/02/11 11:21:02;;;;;;;9.70;5.57;;;;;;;6.55;43.43;102461.19;5018006;28;20048;-91
2023/02/11 11:23:29;;;;;;;7.57;4.53;;;;;;;6.46;44.74;102462.44;5006095;28;20029;-90
2023/02/11 11:26:03;;;;;;;9.48;5.40;;;;;;;6.39;44.64;102455.84;5008851;28;20033;-90
2023/02/11 11:28:32;;;;;;;8.60;4.38;;;;;;;6.35;44.39;102454.31;5017604;28;20041;-90
2023/02/11 11:30:58;;;;;;;8.00;4.90;;;;;;;6.21;44.84;102456.66;5030913;28;20033;-91
2023/02/11 11:33:25;;;;;;;8.50;5.25;;;;;;;6.07;45.22;102459.88;5014064;28;20038;-90
2023/02/11 11:36:00;;;;;;;9.13;4.97;;;;;;;5.88;45.10;102458.97;5005885;28;20037;-92